Airfield :
LOGIN :

Register | Disclaimer

   EN    FR    IT 

 










Legend :    VFR   Marginal VFR   IFR   Intensive IFR   Very Intensive IFR
Visi :
Ceiling :
>= 8 km
>= 3000ft
5 to 8 km
1000 to 3000 ft
1500m to 5 km
500 to 1000 ft
800 to 1500m
200 to 500 ft
< 800m
< 200 ft
Symbols :   Thunderstorms  Fog  Heavy snow  Heavy precipitations  Wind > 20 kt
SIGMETs :     Misc.  Thunderstorms  Icing  Turbulence  Mountain Waves  Volcanic Ashes







- Airport Elevation : 359 ft
- IATA code : BVA
- Download approach charts


LFOB - Beauvais

CURRENT METAR :
  • 111800Z AUTO 10004KT 9999 OVC039 06/04 Q1024 NOSIG

EXPIRED METARs :
  • 111730Z AUTO 08004KT 9999 OVC039 06/05 Q1024 NOSIG
  • 111700Z AUTO 08003KT 9000 BKN040 06/05 Q1024 NOSIG
  • 111630Z AUTO 12003KT 8000 FEW013 OVC040 06/05 Q1024 NOSIG
  • 111600Z AUTO 14003KT 9999 SCT014 OVC039 07/05 Q1024 NOSIG
  • 111530Z AUTO 13003KT 9999 OVC039 08/05 Q1024 NOSIG

TAF TAF LFOB
Valid from the 11 at 18:00 until the 12 at 18:00 UTC


111700Z 1118/1218 10005KT 9999 BKN040
BECMG 1122/1124 0500 FG VV///
TEMPO 1204/1207 FZFG
BECMG 1207/1210 4000 BR OVC006
BECMG 1210/1213 6000 NSW BKN013
ATIS : +33 3 44 11 49 28
No reported NOTAMs for that airfield.



MET'MAP, your aeronautical weather chart ! - Copyright ORBIFLY December 2007 - Disclaimer

ORBIFLY MET'MAP TEAM :

Programming & Development : Alexandra Zaïnal
Concept & Development : Baudouin d'Aumeries
Co-Development & Prog : Marc-Olivier Méhu
Technical & hardware support : Manuel Goepfert

Contact : metmap@orbifly.com




SOURCES & CREDITS :

   NOAA